Flight Track Log - Related Links

Times and Time Zones

All times are in EDT time to prevent confusion due to time zone crossing. See the DAL981 flight status page for this flight to view local times or setup timezone preferences in your user account.

Time Position Orientation Groundspeed Altitude Reporting Facility
EDT Latitude Longitude Course Direction KTS MPH feet Rate Location/Type
Tue 08:22:41 AM 43.1000 -89.3617 288° West 162 186 2,900  Level Minneapolis Center
Tue 08:23:43 AM 43.1181 -89.4400 288° West 230 265 6,300 3,171 Climbing Minneapolis Center
Tue 08:24:44 AM 43.1569 -89.5233 303° West 255 293 9,400 2,203 Climbing Minneapolis Center
Tue 08:25:00 AM 43.2530 -89.9351 288° West  Level FlightAware Approximate
Tue 08:25:51 AM 43.1797 -89.6428 285° West 279 321 11,000  Level Chicago Center
Tue 08:26:00 AM 43.2833 -90.0852 270° West  Level FlightAware Approximate
Tue 08:26:53 AM 43.2175 -89.7467 297° West 310 357 11,000  Level Chicago Center
Tue 08:27:00 AM 43.3085 -90.2361 288° West  Level FlightAware Approximate
Tue 08:27:55 AM 43.2969 -89.8119 329° Northwest 331 381 13,600  Level Chicago Center
Tue 08:28:00 AM 43.3311 -90.3316 288° West  Level FlightAware Approximate
Tue 08:28:50 AM 43.3756 -89.8828 327° Northwest 331 381 16,300  Level Minneapolis Center
Tue 08:29:51 AM 43.4217 -89.9972 299° West 332 382 19,100 2,293 Climbing Minneapolis Center
Tue 08:30:53 AM 43.4492 -90.1244 287° West 343 395 21,000 1,415 Climbing Minneapolis Center
Tue 08:31:54 AM 43.4669 -90.2611 280° West 351 404 22,000 488 Climbing Minneapolis Center
Tue 08:32:56 AM 43.4853 -90.3933 281° West 355 409 22,000  Level Minneapolis Center
Tue 08:33:57 AM 43.5042 -90.5247 281° West 355 409 22,000  Level Minneapolis Center
Tue 08:34:59 AM 43.5239 -90.6553 282° West 353 406 22,000  Level Minneapolis Center
Tue 08:36:00 AM 43.5419 -90.7886 281° West 356 410 22,000  Level Minneapolis Center
Tue 08:37:02 AM 43.5628 -90.9275 282° West 374 430 22,000  Level Minneapolis Center
Tue 08:38:03 AM 43.5869 -91.1086 280° West 399 459 22,000  Level Minneapolis Center
Tue 08:39:05 AM 43.6081 -91.2575 281° West 402 463 22,000  Level Minneapolis Center
Tue 08:40:06 AM 43.6283 -91.4075 281° West 402 463 22,000  Level Minneapolis Center
Tue 08:41:08 AM 43.6481 -91.5575 280° West 403 464 22,000 -195 Level Minneapolis Center
Tue 08:42:09 AM 43.6681 -91.7033 281° West 399 459 21,600 -537 Descending Minneapolis Center
Tue 08:43:11 AM 43.6869 -91.8467 280° West 386 444 20,900 -976 Descending Minneapolis Center
Tue 08:44:12 AM 43.7075 -92.0108 280° West 367 422 19,600 -927 Descending Minneapolis Center
Tue 08:45:14 AM 43.7250 -92.1467 280° West 363 418 19,000 -265 Descending Minneapolis Center
Tue 08:46:28 AM 43.7450 -92.3050 280° West 351 404 19,000  Level Minneapolis Center
Tue 08:47:29 AM 43.7622 -92.4369 280° West 352 405 19,000 -293 Level Minneapolis Center
Tue 08:48:31 AM 43.7828 -92.5925 280° West 350 403 18,400 -927 Descending Minneapolis Center
Tue 08:49:32 AM 43.8486 -92.6906 313° West 350 403 17,100 -639 Descending Minneapolis Center
Tue 08:50:33 AM 43.9183 -92.7833 316° Northwest 349 402 17,100 -488 Level Minneapolis Center
Tue 08:51:35 AM 43.9772 -92.8653 315° West 340 391 16,100 -2,074 Descending Minneapolis Center
Tue 08:52:49 AM 44.0706 -92.9953 315° West 342 394 12,400 -2,578 Descending Minneapolis Center
Tue 08:53:50 AM 44.1372 -93.0889 315° West 338 389 10,300 -1,171 Descending Minneapolis Center
Tue 08:54:52 AM 44.2019 -93.1803 315° West 333 383 10,000 -146 Descending Minneapolis Center
Tue 08:55:53 AM 44.2900 -93.2172 343° North 360 414 10,000  Level Minneapolis Center
Tue 08:56:55 AM 44.3919 -93.2056 North 365 420 10,000 -49 Level Minneapolis Center
Tue 08:57:56 AM 44.4936 -93.1961 North 367 422 9,900 -390 Descending Minneapolis Center
Tue 08:58:58 AM 44.5875 -93.1864 North 339 390 9,200 -927 Descending Minneapolis Center
Tue 08:59:59 AM 44.6850 -93.2161 348° North 298 343 8,000 -590 Descending Minneapolis Center
Tue 09:01:00 AM 44.7500 -93.2572 336° Northwest 300 345 8,000 -49 Level Minneapolis Center
Tue 09:02:02 AM 44.8186 -93.3064 333° Northwest 269 310 7,900 -98 Descending Minneapolis Center
Tue 09:03:03 AM 44.8544 -93.3800 304° West 230 265 7,800 -585 Descending Minneapolis Center
Tue 09:04:05 AM 44.8853 -93.4706 296° West 213 245 6,700 -1,024 Descending Minneapolis Center
Tue 09:05:06 AM 44.9161 -93.5344 304° West 204 235 5,700 -984 Descending Minneapolis Center

Login

Don't have an account? Register now (free) for customized features, flight alerts, and more!